createdAt,value
2023-03-19T00:02:51.283Z,8.20
2023-03-19T00:12:54.717Z,8.85
2023-03-19T00:22:59.287Z,6.95
2023-03-19T00:33:02.853Z,8.45
2023-03-19T00:43:07.462Z,9.05
2023-03-19T00:53:10.722Z,7.73
2023-03-19T01:03:15.447Z,6.63
2023-03-19T01:13:18.743Z,7.28
2023-03-19T01:23:23.386Z,7.27
2023-03-19T01:33:26.813Z,5.63
2023-03-19T01:43:37.498Z,4.73
2023-03-19T01:53:51.058Z,6.30
2023-03-19T02:04:09.297Z,6.30
2023-03-19T02:14:13.432Z,5.20
2023-03-19T02:24:24.264Z,7.03
2023-03-19T02:34:42.326Z,6.78
2023-03-19T02:44:46.209Z,4.47
2023-03-19T02:54:50.912Z,6.77
2023-03-19T03:04:54.948Z,5.90
2023-03-19T03:14:59.578Z,4.87
2023-03-19T03:25:02.802Z,6.47
2023-03-19T03:35:08.587Z,4.38
2023-03-19T03:45:12.774Z,3.07
2023-03-19T03:55:19.403Z,5.90
2023-03-19T04:05:22.726Z,4.50
2023-03-19T04:15:29.475Z,4.50
2023-03-19T04:25:34.345Z,5.63
2023-03-19T04:35:39.113Z,5.03
2023-03-19T04:45:42.670Z,5.13
2023-03-19T04:55:47.932Z,4.37
2023-03-19T05:05:54.574Z,6.23
2023-03-19T05:15:59.564Z,5.37
2023-03-19T05:26:03.092Z,3.87
2023-03-19T05:36:30.997Z,4.27
2023-03-19T05:46:43.537Z,5.77
2023-03-19T05:56:49.088Z,4.80
2023-03-19T06:07:18.432Z,5.27
2023-03-19T06:17:23.068Z,5.33
2023-03-19T06:27:27.075Z,5.03
2023-03-19T06:37:41.688Z,6.63
2023-03-19T06:47:45.516Z,4.90
2023-03-19T06:57:51.784Z,6.10
2023-03-19T07:07:54.968Z,5.63
2023-03-19T07:17:59.782Z,4.60
2023-03-19T07:28:03.037Z,4.20
2023-03-19T07:38:08.157Z,5.13
2023-03-19T07:48:11.603Z,4.40
2023-03-19T07:58:16.852Z,5.38
2023-03-19T08:08:20.206Z,5.88
2023-03-19T08:18:24.804Z,6.00
2023-03-19T08:28:28.146Z,3.47
2023-03-19T08:38:32.703Z,4.20
2023-03-19T08:48:35.926Z,6.72
2023-03-19T08:58:42.129Z,6.75
2023-03-19T09:08:46.115Z,5.38
2023-03-19T09:18:50.747Z,5.38
2023-03-19T09:28:54.023Z,5.28
2023-03-19T09:38:58.840Z,6.05
2023-03-19T09:49:07.306Z,6.30
2023-03-19T09:59:11.988Z,6.78
2023-03-19T10:09:38.989Z,3.83
2023-03-19T10:19:47.988Z,5.40
2023-03-19T10:29:51.557Z,5.10
2023-03-19T10:39:58.202Z,5.40
2023-03-19T10:50:01.436Z,4.95
2023-03-19T11:00:10.988Z,4.57
2023-03-19T11:10:17.238Z,5.93
2023-03-19T11:20:24.697Z,5.50
2023-03-19T11:30:32.768Z,3.53
2023-03-19T11:40:45.422Z,4.45
2023-03-19T11:50:54.582Z,4.38
2023-03-19T12:01:05.194Z,3.42
2023-03-19T12:11:22.053Z,3.95
2023-03-19T12:21:36.121Z,6.40
2023-03-19T12:32:07.501Z,4.35
2023-03-19T12:42:15.275Z,4.15
2023-03-19T12:52:25.024Z,3.72
2023-03-19T13:02:34.945Z,4.45
2023-03-19T13:12:39.897Z,5.43
2023-03-19T13:22:48.788Z,4.53
2023-03-19T13:33:02.084Z,3.35
2023-03-19T13:43:36.292Z,4.68
2023-03-19T13:53:42.496Z,5.13
2023-03-19T14:03:58.464Z,5.05
2023-03-19T14:14:05.113Z,4.43
2023-03-19T14:34:55.314Z,3.95
2023-03-19T14:45:40.773Z,4.32
2023-03-19T14:55:44.280Z,4.53
2023-03-19T15:05:50.689Z,4.03
2023-03-19T15:16:08.087Z,3.03
2023-03-19T15:26:13.329Z,4.63
2023-03-19T15:36:19.995Z,3.55
2023-03-19T15:46:26.501Z,3.75
2023-03-19T15:56:31.498Z,5.28
2023-03-19T16:06:39.218Z,4.03
2023-03-19T16:16:45.946Z,8.02
2023-03-19T16:26:50.757Z,4.55
2023-03-19T16:36:53.938Z,3.80
2023-03-19T16:46:58.524Z,3.13
2023-03-19T16:57:01.973Z,5.57
2023-03-19T17:07:06.803Z,4.50
2023-03-19T17:17:18.318Z,3.20
2023-03-19T17:27:22.920Z,2.70
2023-03-19T17:37:28.080Z,2.03
2023-03-19T17:47:34.350Z,2.17
2023-03-19T17:57:37.563Z,1.47
2023-03-19T18:07:42.056Z,2.13
2023-03-19T18:17:49.567Z,2.87
2023-03-19T18:27:54.846Z,3.83
2023-03-19T18:37:58.380Z,1.90
2023-03-19T18:48:02.945Z,3.33
2023-03-19T18:58:07.205Z,3.73
2023-03-19T19:08:16.311Z,4.33
2023-03-19T19:18:21.419Z,4.57
2023-03-19T19:28:30.499Z,4.37
2023-03-19T19:38:33.695Z,5.67
2023-03-19T19:48:38.962Z,4.35
2023-03-19T19:58:42.434Z,4.00
2023-03-19T20:08:49.205Z,4.37
2023-03-19T20:18:54.694Z,6.27
2023-03-19T20:28:59.291Z,3.53
2023-03-19T20:39:02.453Z,4.50
2023-03-19T20:49:07.802Z,6.20
2023-03-19T20:59:12.493Z,2.70
2023-03-19T21:09:17.721Z,1.70
2023-03-19T21:19:20.954Z,1.30
2023-03-19T21:29:32.433Z,0.80
2023-03-19T21:39:35.853Z,0.60
2023-03-19T21:49:40.444Z,0.73
2023-03-19T21:59:46.929Z,0.53
2023-03-19T22:09:51.542Z,0.57
2023-03-19T22:19:54.773Z,0.93
2023-03-19T22:30:02.056Z,0.77
2023-03-19T22:40:05.863Z,0.50
2023-03-19T22:50:18.452Z,0.57
2023-03-19T23:00:23.797Z,1.63
2023-03-19T23:10:30.222Z,1.13
2023-03-19T23:20:33.807Z,0.70
2023-03-19T23:30:41.406Z,0.87
2023-03-19T23:40:46.202Z,0.50
2023-03-19T23:50:50.868Z,0.40
